sensor_id;sensor_type;location;lat;lon;timestamp;temperature;humidity
71837;DHT22;59686;51.716;7.016;2022-12-05T00:00:53;6.70;77.30
71837;DHT22;59686;51.716;7.016;2022-12-05T00:03:20;6.70;77.40
71837;DHT22;59686;51.716;7.016;2022-12-05T00:05:46;6.70;77.30
71837;DHT22;59686;51.716;7.016;2022-12-05T00:08:12;6.70;77.40
71837;DHT22;59686;51.716;7.016;2022-12-05T00:10:38;6.70;77.30
71837;DHT22;59686;51.716;7.016;2022-12-05T00:13:05;6.70;77.30
71837;DHT22;59686;51.716;7.016;2022-12-05T00:15:30;6.70;77.30
71837;DHT22;59686;51.716;7.016;2022-12-05T00:17:57;6.70;77.30
71837;DHT22;59686;51.716;7.016;2022-12-05T00:20:22;6.70;77.30
71837;DHT22;59686;51.716;7.016;2022-12-05T00:22:48;6.70;77.50
71837;DHT22;59686;51.716;7.016;2022-12-05T00:25:17;6.70;77.40
71837;DHT22;59686;51.716;7.016;2022-12-05T00:27:42;6.70;77.40
71837;DHT22;59686;51.716;7.016;2022-12-05T00:30:08;6.70;77.50
71837;DHT22;59686;51.716;7.016;2022-12-05T00:32:34;6.70;77.50
71837;DHT22;59686;51.716;7.016;2022-12-05T00:35:00;6.70;77.50
71837;DHT22;59686;51.716;7.016;2022-12-05T00:37:25;6.60;78.30
71837;DHT22;59686;51.716;7.016;2022-12-05T00:39:52;6.70;77.60
71837;DHT22;59686;51.716;7.016;2022-12-05T00:42:18;6.70;77.50
71837;DHT22;59686;51.716;7.016;2022-12-05T00:44:43;6.70;77.60
71837;DHT22;59686;51.716;7.016;2022-12-05T00:47:09;6.70;77.60
71837;DHT22;59686;51.716;7.016;2022-12-05T00:49:35;6.70;77.70
71837;DHT22;59686;51.716;7.016;2022-12-05T00:52:00;6.70;77.60
71837;DHT22;59686;51.716;7.016;2022-12-05T00:54:26;6.70;77.60
71837;DHT22;59686;51.716;7.016;2022-12-05T00:56:51;6.70;77.70
71837;DHT22;59686;51.716;7.016;2022-12-05T00:59:20;6.70;77.70
71837;DHT22;59686;51.716;7.016;2022-12-05T01:01:47;6.70;77.70
71837;DHT22;59686;51.716;7.016;2022-12-05T01:04:16;6.70;77.70
71837;DHT22;59686;51.716;7.016;2022-12-05T01:06:42;6.70;77.80
71837;DHT22;59686;51.716;7.016;2022-12-05T01:09:11;6.70;78.50
71837;DHT22;59686;51.716;7.016;2022-12-05T01:11:37;6.70;77.80
71837;DHT22;59686;51.716;7.016;2022-12-05T01:14:03;6.70;77.80
71837;DHT22;59686;51.716;7.016;2022-12-05T01:16:34;6.70;77.80
71837;DHT22;59686;51.716;7.016;2022-12-05T01:19:03;6.70;77.80
71837;DHT22;59686;51.716;7.016;2022-12-05T01:21:29;6.80;77.90
71837;DHT22;59686;51.716;7.016;2022-12-05T01:23:55;6.90;77.90
71837;DHT22;59686;51.716;7.016;2022-12-05T01:26:22;6.80;77.90
71837;DHT22;59686;51.716;7.016;2022-12-05T01:28:48;6.90;78.00
71837;DHT22;59686;51.716;7.016;2022-12-05T01:31:20;6.70;77.90
71837;DHT22;59686;51.716;7.016;2022-12-05T01:34:05;6.80;78.00
71837;DHT22;59686;51.716;7.016;2022-12-05T01:36:30;6.70;78.00
71837;DHT22;59686;51.716;7.016;2022-12-05T01:38:56;6.70;77.90
71837;DHT22;59686;51.716;7.016;2022-12-05T01:41:35;6.70;78.80
71837;DHT22;59686;51.716;7.016;2022-12-05T01:46:54;6.80;78.00
71837;DHT22;59686;51.716;7.016;2022-12-05T01:49:32;6.70;77.90
71837;DHT22;59686;51.716;7.016;2022-12-05T01:52:16;6.80;78.10
71837;DHT22;59686;51.716;7.016;2022-12-05T01:54:45;6.80;78.00
71837;DHT22;59686;51.716;7.016;2022-12-05T01:57:12;6.70;78.00
71837;DHT22;59686;51.716;7.016;2022-12-05T01:59:44;6.80;78.10
71837;DHT22;59686;51.716;7.016;2022-12-05T02:02:11;6.70;78.10
71837;DHT22;59686;51.716;7.016;2022-12-05T02:04:44;6.80;78.20
71837;DHT22;59686;51.716;7.016;2022-12-05T02:07:11;6.70;78.10
71837;DHT22;59686;51.716;7.016;2022-12-05T02:09:36;6.70;78.80
71837;DHT22;59686;51.716;7.016;2022-12-05T02:12:14;6.80;78.20
71837;DHT22;59686;51.716;7.016;2022-12-05T02:18:19;6.80;78.20
71837;DHT22;59686;51.716;7.016;2022-12-05T02:21:04;6.80;78.30
71837;DHT22;59686;51.716;7.016;2022-12-05T02:23:35;6.80;78.30
71837;DHT22;59686;51.716;7.016;2022-12-05T02:32:05;6.80;78.30
71837;DHT22;59686;51.716;7.016;2022-12-05T02:34:52;6.80;78.30
71837;DHT22;59686;51.716;7.016;2022-12-05T02:37:29;6.70;78.30
71837;DHT22;59686;51.716;7.016;2022-12-05T02:43:00;6.80;78.40
71837;DHT22;59686;51.716;7.016;2022-12-05T02:45:29;6.70;78.30
71837;DHT22;59686;51.716;7.016;2022-12-05T02:47:56;6.80;78.40
71837;DHT22;59686;51.716;7.016;2022-12-05T02:50:33;6.80;78.40
71837;DHT22;59686;51.716;7.016;2022-12-05T02:53:04;6.80;79.20
71837;DHT22;59686;51.716;7.016;2022-12-05T02:55:33;6.80;78.40
71837;DHT22;59686;51.716;7.016;2022-12-05T02:58:03;6.80;78.40
71837;DHT22;59686;51.716;7.016;2022-12-05T03:00:30;6.80;78.50
71837;DHT22;59686;51.716;7.016;2022-12-05T03:02:58;6.90;78.60
71837;DHT22;59686;51.716;7.016;2022-12-05T03:05:50;6.80;78.50
71837;DHT22;59686;51.716;7.016;2022-12-05T03:08:21;6.80;78.40
71837;DHT22;59686;51.716;7.016;2022-12-05T03:10:48;6.80;78.40
71837;DHT22;59686;51.716;7.016;2022-12-05T03:13:23;6.80;78.50
71837;DHT22;59686;51.716;7.016;2022-12-05T03:15:56;6.80;78.50
71837;DHT22;59686;51.716;7.016;2022-12-05T03:18:28;6.80;78.60
71837;DHT22;59686;51.716;7.016;2022-12-05T03:23:36;6.80;78.60
71837;DHT22;59686;51.716;7.016;2022-12-05T03:26:09;6.80;78.60
71837;DHT22;59686;51.716;7.016;2022-12-05T03:31:30;6.80;78.60
71837;DHT22;59686;51.716;7.016;2022-12-05T03:34:00;6.80;78.60
71837;DHT22;59686;51.716;7.016;2022-12-05T03:36:36;6.80;78.70
71837;DHT22;59686;51.716;7.016;2022-12-05T03:39:34;6.80;78.60
71837;DHT22;59686;51.716;7.016;2022-12-05T03:42:11;6.80;78.80
71837;DHT22;59686;51.716;7.016;2022-12-05T03:50:34;6.80;78.80
71837;DHT22;59686;51.716;7.016;2022-12-05T03:53:14;6.70;78.80
71837;DHT22;59686;51.716;7.016;2022-12-05T03:55:43;6.80;78.90
71837;DHT22;59686;51.716;7.016;2022-12-05T03:58:24;6.80;78.80
71837;DHT22;59686;51.716;7.016;2022-12-05T04:00:51;6.90;78.90
71837;DHT22;59686;51.716;7.016;2022-12-05T04:03:30;6.80;78.90
71837;DHT22;59686;51.716;7.016;2022-12-05T04:06:09;6.80;78.90
71837;DHT22;59686;51.716;7.016;2022-12-05T04:09:10;6.80;78.90
71837;DHT22;59686;51.716;7.016;2022-12-05T04:11:41;6.80;78.90
71837;DHT22;59686;51.716;7.016;2022-12-05T04:14:10;6.80;78.90
71837;DHT22;59686;51.716;7.016;2022-12-05T04:16:50;6.80;78.90
71837;DHT22;59686;51.716;7.016;2022-12-05T04:22:25;6.80;78.90
71837;DHT22;59686;51.716;7.016;2022-12-05T04:24:52;6.80;79.00
71837;DHT22;59686;51.716;7.016;2022-12-05T04:30:21;6.80;79.00
71837;DHT22;59686;51.716;7.016;2022-12-05T04:35:25;6.80;79.00
71837;DHT22;59686;51.716;7.016;2022-12-05T04:37:55;6.80;79.00
71837;DHT22;59686;51.716;7.016;2022-12-05T04:40:30;6.80;79.00
71837;DHT22;59686;51.716;7.016;2022-12-05T04:42:58;6.80;79.00
71837;DHT22;59686;51.716;7.016;2022-12-05T04:45:26;6.80;79.00
71837;DHT22;59686;51.716;7.016;2022-12-05T04:48:00;6.80;78.90
71837;DHT22;59686;51.716;7.016;2022-12-05T04:50:30;6.80;78.90
71837;DHT22;59686;51.716;7.016;2022-12-05T04:52:58;6.80;79.00
71837;DHT22;59686;51.716;7.016;2022-12-05T04:55:26;6.80;79.00
71837;DHT22;59686;51.716;7.016;2022-12-05T04:58:08;6.80;78.90
71837;DHT22;59686;51.716;7.016;2022-12-05T05:00:51;6.80;79.00
71837;DHT22;59686;51.716;7.016;2022-12-05T05:03:26;6.80;79.10
71837;DHT22;59686;51.716;7.016;2022-12-05T05:05:54;6.80;79.10
71837;DHT22;59686;51.716;7.016;2022-12-05T05:08:23;6.80;79.10
71837;DHT22;59686;51.716;7.016;2022-12-05T05:13:33;6.80;79.20
71837;DHT22;59686;51.716;7.016;2022-12-05T05:15:59;6.80;79.10
71837;DHT22;59686;51.716;7.016;2022-12-05T05:18:24;6.70;79.80
71837;DHT22;59686;51.716;7.016;2022-12-05T05:20:51;6.90;79.10
71837;DHT22;59686;51.716;7.016;2022-12-05T05:23:16;6.80;79.10
71837;DHT22;59686;51.716;7.016;2022-12-05T05:25:42;6.80;79.20
71837;DHT22;59686;51.716;7.016;2022-12-05T05:28:08;6.80;79.20
71837;DHT22;59686;51.716;7.016;2022-12-05T05:30:33;6.80;79.20
71837;DHT22;59686;51.716;7.016;2022-12-05T05:32:59;6.90;79.20
71837;DHT22;59686;51.716;7.016;2022-12-05T05:35:25;6.80;79.10
71837;DHT22;59686;51.716;7.016;2022-12-05T05:37:51;6.80;79.20
71837;DHT22;59686;51.716;7.016;2022-12-05T05:40:17;6.80;79.20
71837;DHT22;59686;51.716;7.016;2022-12-05T05:42:47;6.80;79.20
71837;DHT22;59686;51.716;7.016;2022-12-05T05:45:14;6.80;79.20
71837;DHT22;59686;51.716;7.016;2022-12-05T05:47:48;6.80;79.20
71837;DHT22;59686;51.716;7.016;2022-12-05T05:50:14;6.80;79.10
71837;DHT22;59686;51.716;7.016;2022-12-05T05:52:40;6.80;79.10
71837;DHT22;59686;51.716;7.016;2022-12-05T05:55:06;6.80;79.20
71837;DHT22;59686;51.716;7.016;2022-12-05T05:57:32;6.80;79.30
71837;DHT22;59686;51.716;7.016;2022-12-05T05:59:57;6.90;79.30
71837;DHT22;59686;51.716;7.016;2022-12-05T06:02:23;6.80;79.30
71837;DHT22;59686;51.716;7.016;2022-12-05T06:04:49;6.80;79.20
71837;DHT22;59686;51.716;7.016;2022-12-05T06:07:14;6.90;79.20
71837;DHT22;59686;51.716;7.016;2022-12-05T06:09:40;6.90;79.20
71837;DHT22;59686;51.716;7.016;2022-12-05T06:12:06;6.90;79.30
71837;DHT22;59686;51.716;7.016;2022-12-05T06:14:32;6.80;79.30
71837;DHT22;59686;51.716;7.016;2022-12-05T06:16:57;6.90;79.40
71837;DHT22;59686;51.716;7.016;2022-12-05T06:19:23;6.90;79.30
71837;DHT22;59686;51.716;7.016;2022-12-05T06:21:49;6.90;79.30
71837;DHT22;59686;51.716;7.016;2022-12-05T06:24:16;6.80;79.30
71837;DHT22;59686;51.716;7.016;2022-12-05T06:26:41;6.80;79.30
71837;DHT22;59686;51.716;7.016;2022-12-05T06:29:08;6.90;79.40
71837;DHT22;59686;51.716;7.016;2022-12-05T06:31:34;6.80;79.30
71837;DHT22;59686;51.716;7.016;2022-12-05T06:34:01;6.80;79.30
71837;DHT22;59686;51.716;7.016;2022-12-05T06:36:30;6.80;79.40
71837;DHT22;59686;51.716;7.016;2022-12-05T06:38:56;6.80;79.40
71837;DHT22;59686;51.716;7.016;2022-12-05T06:41:22;6.80;79.50
71837;DHT22;59686;51.716;7.016;2022-12-05T06:43:51;6.70;79.30
71837;DHT22;59686;51.716;7.016;2022-12-05T06:46:19;6.80;79.40
71837;DHT22;59686;51.716;7.016;2022-12-05T06:48:45;6.80;79.30
71837;DHT22;59686;51.716;7.016;2022-12-05T06:51:14;6.90;79.40
71837;DHT22;59686;51.716;7.016;2022-12-05T06:53:41;6.90;79.40
71837;DHT22;59686;51.716;7.016;2022-12-05T06:56:11;6.80;79.40
71837;DHT22;59686;51.716;7.016;2022-12-05T06:58:38;6.80;79.30
71837;DHT22;59686;51.716;7.016;2022-12-05T07:01:04;6.80;79.40
71837;DHT22;59686;51.716;7.016;2022-12-05T07:03:48;6.80;79.40
71837;DHT22;59686;51.716;7.016;2022-12-05T07:06:15;6.80;79.50
71837;DHT22;59686;51.716;7.016;2022-12-05T07:08:41;6.80;79.40
71837;DHT22;59686;51.716;7.016;2022-12-05T07:11:07;6.80;79.40
71837;DHT22;59686;51.716;7.016;2022-12-05T07:13:32;6.70;79.40
71837;DHT22;59686;51.716;7.016;2022-12-05T07:15:58;6.80;79.40
71837;DHT22;59686;51.716;7.016;2022-12-05T07:18:43;6.80;79.50
71837;DHT22;59686;51.716;7.016;2022-12-05T07:21:11;6.80;79.50
71837;DHT22;59686;51.716;7.016;2022-12-05T07:23:37;6.90;80.30
71837;DHT22;59686;51.716;7.016;2022-12-05T07:26:04;6.80;79.60
71837;DHT22;59686;51.716;7.016;2022-12-05T07:28:30;6.80;79.50
71837;DHT22;59686;51.716;7.016;2022-12-05T07:31:01;7.00;79.70
71837;DHT22;59686;51.716;7.016;2022-12-05T07:33:28;6.80;79.50
71837;DHT22;59686;51.716;7.016;2022-12-05T07:36:03;6.80;79.60
71837;DHT22;59686;51.716;7.016;2022-12-05T07:38:29;6.80;79.50
71837;DHT22;59686;51.716;7.016;2022-12-05T07:40:55;6.80;79.50
71837;DHT22;59686;51.716;7.016;2022-12-05T07:43:21;6.80;79.60
71837;DHT22;59686;51.716;7.016;2022-12-05T07:45:47;7.00;79.60
71837;DHT22;59686;51.716;7.016;2022-12-05T07:48:12;6.80;79.60
71837;DHT22;59686;51.716;7.016;2022-12-05T07:50:38;6.80;79.50
71837;DHT22;59686;51.716;7.016;2022-12-05T07:53:04;6.70;79.40
71837;DHT22;59686;51.716;7.016;2022-12-05T07:55:29;6.80;79.60
71837;DHT22;59686;51.716;7.016;2022-12-05T07:57:55;6.80;79.40
71837;DHT22;59686;51.716;7.016;2022-12-05T08:00:21;6.90;79.50
71837;DHT22;59686;51.716;7.016;2022-12-05T08:02:47;6.80;79.40
71837;DHT22;59686;51.716;7.016;2022-12-05T08:05:12;6.80;79.40
71837;DHT22;59686;51.716;7.016;2022-12-05T08:07:38;6.80;79.50
71837;DHT22;59686;51.716;7.016;2022-12-05T08:10:04;6.80;79.30
71837;DHT22;59686;51.716;7.016;2022-12-05T08:12:31;6.80;79.50
71837;DHT22;59686;51.716;7.016;2022-12-05T08:14:57;6.90;79.50
71837;DHT22;59686;51.716;7.016;2022-12-05T08:17:23;6.80;79.40
71837;DHT22;59686;51.716;7.016;2022-12-05T08:19:48;6.90;79.50
71837;DHT22;59686;51.716;7.016;2022-12-05T08:22:14;6.80;79.40
71837;DHT22;59686;51.716;7.016;2022-12-05T08:24:39;6.80;79.40
71837;DHT22;59686;51.716;7.016;2022-12-05T08:27:05;6.80;79.40
71837;DHT22;59686;51.716;7.016;2022-12-05T08:29:31;6.80;79.40
71837;DHT22;59686;51.716;7.016;2022-12-05T08:31:56;6.80;79.40
71837;DHT22;59686;51.716;7.016;2022-12-05T08:34:23;6.80;79.40
71837;DHT22;59686;51.716;7.016;2022-12-05T08:36:49;6.80;79.40
71837;DHT22;59686;51.716;7.016;2022-12-05T08:39:17;6.80;79.40
71837;DHT22;59686;51.716;7.016;2022-12-05T08:41:44;6.80;79.40
71837;DHT22;59686;51.716;7.016;2022-12-05T08:44:11;6.80;79.40
71837;DHT22;59686;51.716;7.016;2022-12-05T08:46:41;6.80;79.40
71837;DHT22;59686;51.716;7.016;2022-12-05T08:49:08;6.80;79.40
71837;DHT22;59686;51.716;7.016;2022-12-05T08:51:34;6.80;79.40
71837;DHT22;59686;51.716;7.016;2022-12-05T08:54:04;6.80;79.30
71837;DHT22;59686;51.716;7.016;2022-12-05T08:56:30;6.80;79.30
71837;DHT22;59686;51.716;7.016;2022-12-05T08:58:57;6.80;79.30
71837;DHT22;59686;51.716;7.016;2022-12-05T09:01:23;6.70;79.30
71837;DHT22;59686;51.716;7.016;2022-12-05T09:03:54;6.80;79.30
71837;DHT22;59686;51.716;7.016;2022-12-05T09:06:23;6.80;79.40
71837;DHT22;59686;51.716;7.016;2022-12-05T09:08:53;6.90;79.50
71837;DHT22;59686;51.716;7.016;2022-12-05T09:11:21;6.80;79.40
71837;DHT22;59686;51.716;7.016;2022-12-05T09:13:49;6.80;79.40
71837;DHT22;59686;51.716;7.016;2022-12-05T09:16:17;6.90;79.50
71837;DHT22;59686;51.716;7.016;2022-12-05T09:18:43;6.80;79.40
71837;DHT22;59686;51.716;7.016;2022-12-05T09:21:15;6.80;79.50
71837;DHT22;59686;51.716;7.016;2022-12-05T09:23:41;6.80;79.50
71837;DHT22;59686;51.716;7.016;2022-12-05T09:26:10;6.90;79.50
71837;DHT22;59686;51.716;7.016;2022-12-05T09:28:36;6.80;79.40
71837;DHT22;59686;51.716;7.016;2022-12-05T09:31:05;6.80;79.40
71837;DHT22;59686;51.716;7.016;2022-12-05T09:33:33;6.80;79.40
71837;DHT22;59686;51.716;7.016;2022-12-05T09:36:02;6.80;79.40
71837;DHT22;59686;51.716;7.016;2022-12-05T09:38:28;6.80;79.40
71837;DHT22;59686;51.716;7.016;2022-12-05T09:44:15;6.80;79.40
71837;DHT22;59686;51.716;7.016;2022-12-05T09:46:32;6.80;79.40
71837;DHT22;59686;51.716;7.016;2022-12-05T09:49:04;6.80;79.50
71837;DHT22;59686;51.716;7.016;2022-12-05T09:51:31;6.80;79.50
71837;DHT22;59686;51.716;7.016;2022-12-05T09:53:56;6.80;79.40
71837;DHT22;59686;51.716;7.016;2022-12-05T09:56:31;6.80;79.40
71837;DHT22;59686;51.716;7.016;2022-12-05T09:58:58;6.80;79.50
71837;DHT22;59686;51.716;7.016;2022-12-05T10:01:42;6.80;79.50
71837;DHT22;59686;51.716;7.016;2022-12-05T10:07:26;6.80;79.50
71837;DHT22;59686;51.716;7.016;2022-12-05T10:12:41;6.90;79.50
71837;DHT22;59686;51.716;7.016;2022-12-05T10:15:15;6.80;79.50
71837;DHT22;59686;51.716;7.016;2022-12-05T10:17:49;6.80;79.50
71837;DHT22;59686;51.716;7.016;2022-12-05T10:20:21;6.80;79.60
71837;DHT22;59686;51.716;7.016;2022-12-05T10:22:53;6.80;79.60
71837;DHT22;59686;51.716;7.016;2022-12-05T10:25:24;6.80;79.60
71837;DHT22;59686;51.716;7.016;2022-12-05T10:27:53;6.80;79.60
71837;DHT22;59686;51.716;7.016;2022-12-05T10:30:26;7.00;79.70
71837;DHT22;59686;51.716;7.016;2022-12-05T10:32:58;6.80;79.60
71837;DHT22;59686;51.716;7.016;2022-12-05T10:35:32;6.80;79.60
71837;DHT22;59686;51.716;7.016;2022-12-05T10:38:22;6.80;79.60
71837;DHT22;59686;51.716;7.016;2022-12-05T10:40:58;6.80;79.60
71837;DHT22;59686;51.716;7.016;2022-12-05T10:43:30;6.80;79.60
71837;DHT22;59686;51.716;7.016;2022-12-05T10:45:56;6.80;79.60
71837;DHT22;59686;51.716;7.016;2022-12-05T10:48:23;6.80;79.60
71837;DHT22;59686;51.716;7.016;2022-12-05T10:50:51;6.80;79.50
71837;DHT22;59686;51.716;7.016;2022-12-05T10:53:44;6.80;79.50
71837;DHT22;59686;51.716;7.016;2022-12-05T10:59:13;6.80;79.40
71837;DHT22;59686;51.716;7.016;2022-12-05T11:01:53;6.80;79.30
71837;DHT22;59686;51.716;7.016;2022-12-05T11:04:38;6.80;79.30
71837;DHT22;59686;51.716;7.016;2022-12-05T11:07:05;6.80;79.40
71837;DHT22;59686;51.716;7.016;2022-12-05T11:09:34;6.80;79.30
71837;DHT22;59686;51.716;7.016;2022-12-05T11:14:38;6.80;79.30
71837;DHT22;59686;51.716;7.016;2022-12-05T11:17:05;6.80;79.30
71837;DHT22;59686;51.716;7.016;2022-12-05T11:19:33;6.80;79.30
71837;DHT22;59686;51.716;7.016;2022-12-05T11:22:00;6.80;80.10
71837;DHT22;59686;51.716;7.016;2022-12-05T11:24:36;6.90;79.40
71837;DHT22;59686;51.716;7.016;2022-12-05T11:29:40;6.80;79.30
71837;DHT22;59686;51.716;7.016;2022-12-05T11:32:17;6.90;79.40
71837;DHT22;59686;51.716;7.016;2022-12-05T11:35:08;6.80;79.20
71837;DHT22;59686;51.716;7.016;2022-12-05T11:37:55;6.80;79.20
71837;DHT22;59686;51.716;7.016;2022-12-05T11:40:34;6.80;79.20
71837;DHT22;59686;51.716;7.016;2022-12-05T11:45:43;6.80;79.20
71837;DHT22;59686;51.716;7.016;2022-12-05T11:56:45;6.80;79.10
71837;DHT22;59686;51.716;7.016;2022-12-05T12:04:48;6.80;79.20
71837;DHT22;59686;51.716;7.016;2022-12-05T12:23:39;6.80;79.20
71837;DHT22;59686;51.716;7.016;2022-12-05T12:26:23;6.80;79.10
71837;DHT22;59686;51.716;7.016;2022-12-05T12:43:04;6.80;79.10
71837;DHT22;59686;51.716;7.016;2022-12-05T12:45:46;6.70;79.10
71837;DHT22;59686;51.716;7.016;2022-12-05T12:51:17;6.80;79.00
71837;DHT22;59686;51.716;7.016;2022-12-05T12:56:54;6.70;79.00
71837;DHT22;59686;51.716;7.016;2022-12-05T13:02:46;6.70;79.00
71837;DHT22;59686;51.716;7.016;2022-12-05T13:05:21;6.60;78.90
71837;DHT22;59686;51.716;7.016;2022-12-05T13:07:51;6.70;79.00
71837;DHT22;59686;51.716;7.016;2022-12-05T13:10:32;6.70;79.00
71837;DHT22;59686;51.716;7.016;2022-12-05T13:13:02;6.70;79.00
71837;DHT22;59686;51.716;7.016;2022-12-05T13:15:39;6.70;79.00
71837;DHT22;59686;51.716;7.016;2022-12-05T13:18:15;6.70;79.00
71837;DHT22;59686;51.716;7.016;2022-12-05T13:20:42;6.70;78.90
71837;DHT22;59686;51.716;7.016;2022-12-05T13:23:13;6.70;78.90
71837;DHT22;59686;51.716;7.016;2022-12-05T13:25:39;6.70;78.90
71837;DHT22;59686;51.716;7.016;2022-12-05T13:28:29;6.70;78.90
71837;DHT22;59686;51.716;7.016;2022-12-05T13:30:56;6.70;78.90
71837;DHT22;59686;51.716;7.016;2022-12-05T13:33:28;6.70;78.90
71837;DHT22;59686;51.716;7.016;2022-12-05T13:35:56;6.70;78.90
71837;DHT22;59686;51.716;7.016;2022-12-05T13:38:45;6.70;78.90
71837;DHT22;59686;51.716;7.016;2022-12-05T13:41:43;6.70;78.90
71837;DHT22;59686;51.716;7.016;2022-12-05T13:52:30;6.70;78.90
71837;DHT22;59686;51.716;7.016;2022-12-05T13:55:18;6.60;78.80
71837;DHT22;59686;51.716;7.016;2022-12-05T13:57:47;6.70;78.90
71837;DHT22;59686;51.716;7.016;2022-12-05T14:07:57;6.80;78.90
71837;DHT22;59686;51.716;7.016;2022-12-05T14:15:42;6.70;78.90
71837;DHT22;59686;51.716;7.016;2022-12-05T14:18:14;6.70;78.90
71837;DHT22;59686;51.716;7.016;2022-12-05T14:20:55;6.70;78.90
71837;DHT22;59686;51.716;7.016;2022-12-05T14:23:51;6.70;79.00
71837;DHT22;59686;51.716;7.016;2022-12-05T14:34:28;6.60;78.90
71837;DHT22;59686;51.716;7.016;2022-12-05T14:37:01;6.70;78.90
71837;DHT22;59686;51.716;7.016;2022-12-05T14:42:04;6.70;78.80
71837;DHT22;59686;51.716;7.016;2022-12-05T14:44:32;6.60;78.80
71837;DHT22;59686;51.716;7.016;2022-12-05T14:47:03;6.60;78.90
71837;DHT22;59686;51.716;7.016;2022-12-05T14:49:51;6.70;78.90
71837;DHT22;59686;51.716;7.016;2022-12-05T14:52:20;6.60;78.80
71837;DHT22;59686;51.716;7.016;2022-12-05T14:54:51;6.60;78.90
71837;DHT22;59686;51.716;7.016;2022-12-05T14:57:18;6.70;79.60
71837;DHT22;59686;51.716;7.016;2022-12-05T15:00:15;6.80;79.10
71837;DHT22;59686;51.716;7.016;2022-12-05T15:02:45;6.70;79.00
71837;DHT22;59686;51.716;7.016;2022-12-05T15:05:30;6.60;78.90
71837;DHT22;59686;51.716;7.016;2022-12-05T15:07:58;6.70;79.00
71837;DHT22;59686;51.716;7.016;2022-12-05T15:10:32;6.70;79.00
71837;DHT22;59686;51.716;7.016;2022-12-05T15:13:17;6.70;79.00
71837;DHT22;59686;51.716;7.016;2022-12-05T15:15:44;6.70;78.90
71837;DHT22;59686;51.716;7.016;2022-12-05T15:18:37;6.60;79.00
71837;DHT22;59686;51.716;7.016;2022-12-05T15:23:55;6.60;79.00
71837;DHT22;59686;51.716;7.016;2022-12-05T15:31:50;6.60;79.00
71837;DHT22;59686;51.716;7.016;2022-12-05T15:34:21;6.60;78.90
71837;DHT22;59686;51.716;7.016;2022-12-05T15:39:50;6.60;79.00
71837;DHT22;59686;51.716;7.016;2022-12-05T15:47:53;6.60;79.10
71837;DHT22;59686;51.716;7.016;2022-12-05T15:55:58;6.60;79.00
71837;DHT22;59686;51.716;7.016;2022-12-05T15:58:46;6.60;79.00
71837;DHT22;59686;51.716;7.016;2022-12-05T16:01:22;6.60;79.00
71837;DHT22;59686;51.716;7.016;2022-12-05T16:03:58;6.60;79.10
71837;DHT22;59686;51.716;7.016;2022-12-05T16:09:05;6.60;79.10
71837;DHT22;59686;51.716;7.016;2022-12-05T16:11:32;6.60;79.10
71837;DHT22;59686;51.716;7.016;2022-12-05T16:14:00;6.70;79.20
71837;DHT22;59686;51.716;7.016;2022-12-05T16:16:31;6.60;79.20
71837;DHT22;59686;51.716;7.016;2022-12-05T16:19:03;6.60;79.10
71837;DHT22;59686;51.716;7.016;2022-12-05T16:21:31;6.60;79.10
71837;DHT22;59686;51.716;7.016;2022-12-05T16:26:36;6.60;79.10
71837;DHT22;59686;51.716;7.016;2022-12-05T16:29:03;6.50;79.10
71837;DHT22;59686;51.716;7.016;2022-12-05T16:31:29;6.50;79.80
71837;DHT22;59686;51.716;7.016;2022-12-05T16:34:05;6.60;79.10
71837;DHT22;59686;51.716;7.016;2022-12-05T16:36:31;6.50;79.10
71837;DHT22;59686;51.716;7.016;2022-12-05T16:39:05;6.50;79.20
71837;DHT22;59686;51.716;7.016;2022-12-05T16:41:33;6.60;79.20
71837;DHT22;59686;51.716;7.016;2022-12-05T16:43:59;6.50;79.30
71837;DHT22;59686;51.716;7.016;2022-12-05T16:54:33;6.60;79.30
71837;DHT22;59686;51.716;7.016;2022-12-05T16:56:59;6.60;79.30
71837;DHT22;59686;51.716;7.016;2022-12-05T16:59:32;6.60;79.30
71837;DHT22;59686;51.716;7.016;2022-12-05T17:01:59;6.60;79.30
71837;DHT22;59686;51.716;7.016;2022-12-05T17:04:26;6.70;79.30
71837;DHT22;59686;51.716;7.016;2022-12-05T17:06:52;6.50;79.20
71837;DHT22;59686;51.716;7.016;2022-12-05T17:09:18;6.50;79.20
71837;DHT22;59686;51.716;7.016;2022-12-05T17:11:45;6.50;79.30
71837;DHT22;59686;51.716;7.016;2022-12-05T17:14:14;6.60;79.20
71837;DHT22;59686;51.716;7.016;2022-12-05T17:16:41;6.60;79.30
71837;DHT22;59686;51.716;7.016;2022-12-05T17:19:07;6.60;79.20
71837;DHT22;59686;51.716;7.016;2022-12-05T17:21:34;6.60;79.30
71837;DHT22;59686;51.716;7.016;2022-12-05T17:24:03;6.70;79.30
71837;DHT22;59686;51.716;7.016;2022-12-05T17:26:29;6.50;79.20
71837;DHT22;59686;51.716;7.016;2022-12-05T17:28:54;6.60;79.30
71837;DHT22;59686;51.716;7.016;2022-12-05T17:31:22;6.60;79.30
71837;DHT22;59686;51.716;7.016;2022-12-05T17:33:50;6.50;79.30
71837;DHT22;59686;51.716;7.016;2022-12-05T17:36:16;6.50;79.30
71837;DHT22;59686;51.716;7.016;2022-12-05T17:38:42;6.50;79.30
71837;DHT22;59686;51.716;7.016;2022-12-05T17:41:20;6.50;79.30
71837;DHT22;59686;51.716;7.016;2022-12-05T17:43:46;6.50;80.00
71837;DHT22;59686;51.716;7.016;2022-12-05T17:46:18;6.50;79.30
71837;DHT22;59686;51.716;7.016;2022-12-05T17:48:45;6.50;79.30
71837;DHT22;59686;51.716;7.016;2022-12-05T17:51:11;6.50;79.20
71837;DHT22;59686;51.716;7.016;2022-12-05T17:53:39;6.50;79.30
71837;DHT22;59686;51.716;7.016;2022-12-05T17:56:06;6.60;79.30
71837;DHT22;59686;51.716;7.016;2022-12-05T17:58:33;6.50;79.30
71837;DHT22;59686;51.716;7.016;2022-12-05T18:00:59;6.50;79.30
71837;DHT22;59686;51.716;7.016;2022-12-05T18:03:27;6.50;79.30
71837;DHT22;59686;51.716;7.016;2022-12-05T18:05:53;6.50;79.30
71837;DHT22;59686;51.716;7.016;2022-12-05T18:08:18;6.50;79.20
71837;DHT22;59686;51.716;7.016;2022-12-05T18:10:47;6.50;79.30
71837;DHT22;59686;51.716;7.016;2022-12-05T18:13:13;6.50;79.30
71837;DHT22;59686;51.716;7.016;2022-12-05T18:15:40;6.40;79.30
71837;DHT22;59686;51.716;7.016;2022-12-05T18:18:15;6.50;79.30
71837;DHT22;59686;51.716;7.016;2022-12-05T18:20:41;6.50;79.30
71837;DHT22;59686;51.716;7.016;2022-12-05T18:23:07;6.50;79.30
71837;DHT22;59686;51.716;7.016;2022-12-05T18:25:32;6.50;79.30
71837;DHT22;59686;51.716;7.016;2022-12-05T18:27:58;6.50;79.40
71837;DHT22;59686;51.716;7.016;2022-12-05T18:33:31;6.50;79.30
71837;DHT22;59686;51.716;7.016;2022-12-05T18:36:01;6.50;79.30
71837;DHT22;59686;51.716;7.016;2022-12-05T18:38:27;6.40;79.30
71837;DHT22;59686;51.716;7.016;2022-12-05T18:41:00;6.40;79.30
71837;DHT22;59686;51.716;7.016;2022-12-05T18:43:27;6.50;79.40
71837;DHT22;59686;51.716;7.016;2022-12-05T18:45:57;6.50;79.50
71837;DHT22;59686;51.716;7.016;2022-12-05T18:48:23;6.40;79.40
71837;DHT22;59686;51.716;7.016;2022-12-05T18:50:49;6.50;79.50
71837;DHT22;59686;51.716;7.016;2022-12-05T18:53:14;6.50;79.40
71837;DHT22;59686;51.716;7.016;2022-12-05T18:55:40;6.60;79.60
71837;DHT22;59686;51.716;7.016;2022-12-05T18:58:07;6.50;79.50
71837;DHT22;59686;51.716;7.016;2022-12-05T19:00:33;6.50;79.50
71837;DHT22;59686;51.716;7.016;2022-12-05T19:02:59;6.40;79.50
71837;DHT22;59686;51.716;7.016;2022-12-05T19:05:25;6.50;79.50